Time;durP1;ratioP1;P1;durP2;ratioP2;P2;SDS_P1;SDS_P2;PMS_P1;PMS_P2;Temp;Humidity;BMP_temperature;BMP_pressure;BME280_temperature;BME280_humidity;BME280_pressure;Samples;Min_cycle;Max_cycle;Signal;HPM_P1;HPM_P2
2022/08/13 00:00:15;;;;;;;408.00;231.63;;;;;;;;;;4981425;28;20186;-48
2022/08/13 00:02:43;;;;;;;421.38;239.50;;;;;;;;;;4986939;28;20311;-48
2022/08/13 00:05:10;;;;;;;429.75;243.90;;;;;;;;;;4981260;28;20217;-48
2022/08/13 00:07:36;;;;;;;443.23;245.18;;;;;;;;;;4980253;28;20217;-48
2022/08/13 00:10:05;;;;;;;411.67;229.80;;;;;;;;;;4974437;28;20800;-47
2022/08/13 00:15:20;;;;;;;465.98;254.73;;;;;;;;;;4987856;28;20242;-48
2022/08/13 00:17:49;;;;;;;393.38;225.00;;;;;;;;;;4979245;28;20185;-48
2022/08/13 00:20:17;;;;;;;419.10;233.57;;;;;;;;;;4983091;28;20339;-48
2022/08/13 00:22:42;;;;;;;469.00;259.17;;;;;;;;;;4974523;28;20251;-48
2022/08/13 00:25:09;;;;;;;368.48;207.82;;;;;;;;;;4989799;28;20206;-48
2022/08/13 00:27:35;;;;;;;407.42;229.40;;;;;;;;;;4979928;28;20212;-47
2022/08/13 00:30:01;;;;;;;446.10;252.32;;;;;;;;;;4976124;28;20169;-48
2022/08/13 00:32:30;;;;;;;451.73;250.68;;;;;;;;;;4978515;28;20327;-47
2022/08/13 00:34:57;;;;;;;382.45;218.50;;;;;;;;;;4980247;28;20221;-48
2022/08/13 00:37:25;;;;;;;413.15;233.70;;;;;;;;;;4986171;28;20227;-47
2022/08/13 00:39:51;;;;;;;409.20;234.10;;;;;;;;;;4980866;28;20219;-47
2022/08/13 00:42:21;;;;;;;431.02;241.80;;;;;;;;;;4977281;28;20196;-47
2022/08/13 00:44:47;;;;;;;413.98;232.45;;;;;;;;;;4981817;28;20248;-47
2022/08/13 00:49:58;;;;;;;390.02;222.95;;;;;;;;;;4981851;28;20311;-47
2022/08/13 00:52:30;;;;;;;406.60;230.75;;;;;;;;;;4981621;28;20231;-47
2022/08/13 00:54:59;;;;;;;386.50;225.13;;;;;;;;;;4987932;28;20551;-47
2022/08/13 00:57:26;;;;;;;410.63;229.90;;;;;;;;;;4981843;28;20708;-47
2022/08/13 00:59:53;;;;;;;423.38;239.98;;;;;;;;;;4978623;28;20260;-47
2022/08/13 01:02:21;;;;;;;452.77;249.60;;;;;;;;;;4976321;28;20259;-47
2022/08/13 01:04:47;;;;;;;435.67;246.50;;;;;;;;;;4974849;28;20204;-47
2022/08/13 01:07:19;;;;;;;403.38;227.85;;;;;;;;;;4977305;28;20813;-47
2022/08/13 01:09:46;;;;;;;402.52;228.75;;;;;;;;;;4987400;28;20404;-47
2022/08/13 01:12:13;;;;;;;424.88;237.32;;;;;;;;;;4984893;28;20208;-46
2022/08/13 01:14:40;;;;;;;455.63;255.90;;;;;;;;;;4980878;28;20255;-47
2022/08/13 01:17:05;;;;;;;444.88;247.80;;;;;;;;;;4974345;28;20253;-47
2022/08/13 01:19:34;;;;;;;431.88;238.55;;;;;;;;;;4979181;28;20251;-47
2022/08/13 01:22:01;;;;;;;432.33;250.93;;;;;;;;;;4980801;28;20263;-47
2022/08/13 01:24:28;;;;;;;386.85;223.38;;;;;;;;;;4981316;28;20233;-47
2022/08/13 01:26:54;;;;;;;418.30;233.38;;;;;;;;;;4976079;28;20190;-47
2022/08/13 01:29:20;;;;;;;432.10;243.40;;;;;;;;;;4976571;28;20212;-47
2022/08/13 01:31:46;;;;;;;406.75;226.55;;;;;;;;;;4983829;28;20734;-47
2022/08/13 01:34:13;;;;;;;408.80;230.23;;;;;;;;;;4980353;28;20245;-47
2022/08/13 01:36:40;;;;;;;412.35;227.32;;;;;;;;;;4982833;28;20213;-47
2022/08/13 01:39:07;;;;;;;390.75;220.63;;;;;;;;;;4984265;28;20518;-47
2022/08/13 01:41:33;;;;;;;449.15;250.05;;;;;;;;;;4978414;28;20376;-47
2022/08/13 01:44:04;;;;;;;412.85;234.27;;;;;;;;;;4978063;28;20226;-47
2022/08/13 01:50:28;;;;;;;422.45;240.88;;;;;;;;;;4975259;28;20216;-47
2022/08/13 01:52:01;;;;;;;421.20;236.13;;;;;;;;;;4977464;28;20255;-47
2022/08/13 01:54:28;;;;;;;449.38;251.60;;;;;;;;;;4986488;28;20237;-47
2022/08/13 01:56:59;;;;;;;396.75;229.75;;;;;;;;;;4975940;28;20609;-47
2022/08/13 01:59:25;;;;;;;427.55;238.63;;;;;;;;;;4982765;28;20225;-47
2022/08/13 02:01:53;;;;;;;414.70;241.23;;;;;;;;;;4981906;28;20222;-46
2022/08/13 02:04:20;;;;;;;403.38;233.30;;;;;;;;;;4980696;28;20768;-47
2022/08/13 02:06:47;;;;;;;424.90;242.93;;;;;;;;;;4980635;28;20363;-47
2022/08/13 02:09:13;;;;;;;407.05;234.15;;;;;;;;;;4984288;28;20207;-47
2022/08/13 02:11:39;;;;;;;458.05;252.07;;;;;;;;;;4976460;28;20587;-47
2022/08/13 02:14:05;;;;;;;415.85;235.10;;;;;;;;;;4984467;28;20229;-47
2022/08/13 02:16:36;;;;;;;385.35;220.70;;;;;;;;;;4983379;28;20224;-47
2022/08/13 02:19:03;;;;;;;435.10;249.90;;;;;;;;;;4979268;28;20240;-46
2022/08/13 02:21:33;;;;;;;388.73;223.43;;;;;;;;;;4983656;28;20200;-47
2022/08/13 02:24:00;;;;;;;424.60;239.35;;;;;;;;;;4981912;28;20210;-47
2022/08/13 02:26:29;;;;;;;518.15;287.65;;;;;;;;;;4976032;28;20800;-47
2022/08/13 02:28:57;;;;;;;422.85;235.13;;;;;;;;;;4975645;28;20205;-47
2022/08/13 02:31:23;;;;;;;394.75;217.80;;;;;;;;;;4981618;28;20212;-47
2022/08/13 02:33:52;;;;;;;371.90;209.45;;;;;;;;;;4995665;28;20266;-46
2022/08/13 02:36:21;;;;;;;387.48;222.40;;;;;;;;;;4989205;28;20246;-51
2022/08/13 02:38:53;;;;;;;422.48;241.70;;;;;;;;;;4987266;28;20201;-50
2022/08/13 02:44:04;;;;;;;380.30;219.88;;;;;;;;;;4991084;28;20252;-49
2022/08/13 02:46:30;;;;;;;379.92;216.80;;;;;;;;;;4991097;28;20208;-50
2022/08/13 02:48:59;;;;;;;414.45;239.85;;;;;;;;;;4984119;28;20292;-50
2022/08/13 02:51:26;;;;;;;389.23;224.68;;;;;;;;;;4985067;28;20212;-50
2022/08/13 02:53:55;;;;;;;410.77;231.43;;;;;;;;;;4989947;28;20509;-50
2022/08/13 02:56:22;;;;;;;371.88;206.20;;;;;;;;;;4988461;28;20274;-50
2022/08/13 02:58:48;;;;;;;397.48;222.52;;;;;;;;;;4983305;28;20210;-51
2022/08/13 03:01:14;;;;;;;431.58;254.52;;;;;;;;;;4981294;28;20221;-49
2022/08/13 03:03:40;;;;;;;421.23;244.95;;;;;;;;;;4985937;28;20228;-50
2022/08/13 03:06:08;;;;;;;423.48;240.68;;;;;;;;;;4991801;28;20212;-51
2022/08/13 03:08:35;;;;;;;408.90;231.98;;;;;;;;;;4988379;28;20216;-50
2022/08/13 03:11:01;;;;;;;415.10;236.82;;;;;;;;;;4982426;28;20498;-51
2022/08/13 03:13:30;;;;;;;374.63;216.52;;;;;;;;;;4985376;28;20452;-51
2022/08/13 03:15:57;;;;;;;402.35;230.13;;;;;;;;;;4985884;28;20825;-50
2022/08/13 03:18:23;;;;;;;377.70;215.80;;;;;;;;;;4983503;28;20216;-51
2022/08/13 03:20:50;;;;;;;437.90;244.70;;;;;;;;;;4988151;28;20213;-51
2022/08/13 03:23:16;;;;;;;397.02;223.32;;;;;;;;;;4983869;28;20297;-51
2022/08/13 03:25:42;;;;;;;431.92;244.57;;;;;;;;;;4985587;28;20228;-51
2022/08/13 03:28:09;;;;;;;385.90;226.82;;;;;;;;;;4986748;28;20225;-51
2022/08/13 03:30:35;;;;;;;417.85;240.38;;;;;;;;;;4984306;28;20181;-51
2022/08/13 03:33:06;;;;;;;385.90;226.57;;;;;;;;;;4986342;28;20249;-51
2022/08/13 03:35:32;;;;;;;419.90;245.80;;;;;;;;;;4988150;28;20228;-53
2022/08/13 03:37:58;;;;;;;385.65;222.40;;;;;;;;;;4988829;28;20560;-51
2022/08/13 03:40:24;;;;;;;421.85;238.82;;;;;;;;;;4989066;28;20943;-51
2022/08/13 03:42:51;;;;;;;397.50;231.55;;;;;;;;;;4986693;28;20296;-51
2022/08/13 03:45:17;;;;;;;423.95;245.77;;;;;;;;;;4986249;28;20180;-51
2022/08/13 03:47:44;;;;;;;399.23;235.07;;;;;;;;;;4981526;28;20196;-51
2022/08/13 03:50:11;;;;;;;412.70;244.63;;;;;;;;;;4985211;28;20311;-51
2022/08/13 03:52:37;;;;;;;407.65;242.32;;;;;;;;;;4987967;28;20674;-52
2022/08/13 03:55:04;;;;;;;399.05;238.70;;;;;;;;;;4982616;28;20398;-52
2022/08/13 03:57:30;;;;;;;414.00;247.05;;;;;;;;;;4980566;28;20279;-52
2022/08/13 03:59:58;;;;;;;409.27;240.15;;;;;;;;;;4983203;28;20272;-51
2022/08/13 04:02:24;;;;;;;431.75;253.30;;;;;;;;;;4987717;28;20295;-51
2022/08/13 04:04:50;;;;;;;407.05;240.30;;;;;;;;;;4987207;28;20208;-50
2022/08/13 04:07:17;;;;;;;393.63;231.63;;;;;;;;;;4985726;28;20567;-51
2022/08/13 04:09:44;;;;;;;418.77;249.35;;;;;;;;;;4982572;28;20321;-51
2022/08/13 04:12:11;;;;;;;382.20;224.75;;;;;;;;;;4988941;28;20651;-53
2022/08/13 04:14:39;;;;;;;415.70;244.52;;;;;;;;;;4985141;28;20403;-53
2022/08/13 04:17:05;;;;;;;368.38;219.25;;;;;;;;;;4982771;28;20321;-51
2022/08/13 04:19:33;;;;;;;376.05;225.18;;;;;;;;;;4987247;28;20687;-52
2022/08/13 04:21:59;;;;;;;437.25;253.32;;;;;;;;;;4981173;28;20209;-53
2022/08/13 04:24:27;;;;;;;359.80;222.55;;;;;;;;;;4981413;28;20240;-51
2022/08/13 04:26:54;;;;;;;406.55;242.63;;;;;;;;;;4986460;28;20182;-53
2022/08/13 04:29:20;;;;;;;413.02;242.77;;;;;;;;;;4986327;28;20304;-51
2022/08/13 04:31:47;;;;;;;404.13;245.02;;;;;;;;;;4991065;28;20217;-51
2022/08/13 04:34:14;;;;;;;356.80;218.68;;;;;;;;;;4989734;28;20225;-51
2022/08/13 04:36:40;;;;;;;420.55;253.18;;;;;;;;;;4983145;28;20221;-52
2022/08/13 04:39:06;;;;;;;409.60;245.30;;;;;;;;;;4982911;28;20243;-51
2022/08/13 04:41:32;;;;;;;435.35;249.48;;;;;;;;;;4984465;28;20205;-50
2022/08/13 04:43:58;;;;;;;442.35;257.80;;;;;;;;;;4981502;28;20225;-48
2022/08/13 04:46:25;;;;;;;406.15;234.82;;;;;;;;;;4979632;28;20314;-48
2022/08/13 04:48:52;;;;;;;390.40;225.30;;;;;;;;;;4991350;28;20295;-48
2022/08/13 04:51:18;;;;;;;415.55;237.20;;;;;;;;;;4978902;28;20192;-48
2022/08/13 04:53:44;;;;;;;428.15;247.98;;;;;;;;;;4976608;28;20215;-48
2022/08/13 04:56:10;;;;;;;412.80;232.23;;;;;;;;;;4982533;28;20217;-48
2022/08/13 04:58:36;;;;;;;437.10;253.98;;;;;;;;;;4987756;28;20240;-48
2022/08/13 05:01:03;;;;;;;403.67;234.50;;;;;;;;;;4982743;28;20220;-48
2022/08/13 05:03:29;;;;;;;393.65;230.95;;;;;;;;;;4982445;28;20209;-48
2022/08/13 05:05:56;;;;;;;424.85;247.43;;;;;;;;;;4976222;28;20189;-49
2022/08/13 05:08:22;;;;;;;404.35;233.15;;;;;;;;;;4988173;28;20220;-48
2022/08/13 05:10:49;;;;;;;419.45;243.70;;;;;;;;;;4986024;28;20278;-48
2022/08/13 05:13:28;;;;;;;395.52;229.00;;;;;;;;;;4987344;28;20224;-48
2022/08/13 05:15:55;;;;;;;388.02;226.90;;;;;;;;;;4977244;28;20224;-48
2022/08/13 05:18:21;;;;;;;423.25;246.25;;;;;;;;;;4986483;28;20178;-49
2022/08/13 05:20:48;;;;;;;387.58;234.63;;;;;;;;;;4983434;28;20646;-49
2022/08/13 05:23:14;;;;;;;446.30;275.52;;;;;;;;;;4978195;28;20721;-50
2022/08/13 05:25:43;;;;;;;427.30;251.68;;;;;;;;;;4972496;28;20226;-50
2022/08/13 05:28:09;;;;;;;418.77;247.18;;;;;;;;;;4983613;28;20308;-50
2022/08/13 05:30:39;;;;;;;455.00;271.15;;;;;;;;;;4967242;28;20403;-50
2022/08/13 05:33:16;;;;;;;455.17;265.52;;;;;;;;;;4978763;28;20622;-50
2022/08/13 05:35:43;;;;;;;502.65;290.65;;;;;;;;;;4982814;28;20632;-50
2022/08/13 05:38:09;;;;;;;402.02;253.73;;;;;;;;;;4984292;28;20281;-51
2022/08/13 05:40:35;;;;;;;404.15;245.43;;;;;;;;;;4984145;28;20669;-50
2022/08/13 05:43:02;;;;;;;429.30;255.50;;;;;;;;;;4988005;28;20218;-50
2022/08/13 05:45:28;;;;;;;431.17;268.85;;;;;;;;;;4985662;28;20462;-50
2022/08/13 05:47:54;;;;;;;438.13;272.77;;;;;;;;;;4975971;28;20363;-50
2022/08/13 05:50:20;;;;;;;396.80;257.83;;;;;;;;;;4990854;28;20221;-50
2022/08/13 05:52:46;;;;;;;426.98;274.75;;;;;;;;;;4987010;28;20232;-50
2022/08/13 05:55:13;;;;;;;389.80;257.23;;;;;;;;;;4977787;28;20537;-50
2022/08/13 05:57:40;;;;;;;453.27;284.27;;;;;;;;;;4980553;28;20232;-50
2022/08/13 06:05:37;;;;;;;495.92;305.60;;;;;;;;;;4979340;28;20259;-50
2022/08/13 06:08:04;;;;;;;410.35;262.08;;;;;;;;;;4983217;28;20213;-50
2022/08/13 06:10:30;;;;;;;448.63;278.08;;;;;;;;;;4981751;28;20277;-50
2022/08/13 06:12:56;;;;;;;434.27;270.52;;;;;;;;;;4976266;28;20637;-50
2022/08/13 06:15:22;;;;;;;410.10;266.90;;;;;;;;;;4985008;28;20244;-50
2022/08/13 06:17:50;;;;;;;383.85;255.90;;;;;;;;;;4982000;28;20181;-50
2022/08/13 06:20:17;;;;;;;423.20;269.10;;;;;;;;;;4982601;28;20223;-49
2022/08/13 06:22:45;;;;;;;426.15;275.55;;;;;;;;;;4986827;28;20225;-50
2022/08/13 06:25:11;;;;;;;426.08;267.73;;;;;;;;;;4985874;28;20243;-49
2022/08/13 06:27:37;;;;;;;401.80;248.68;;;;;;;;;;4990854;28;20217;-50
2022/08/13 06:30:04;;;;;;;533.00;327.45;;;;;;;;;;4983057;28;20577;-50
2022/08/13 06:32:31;;;;;;;517.63;316.15;;;;;;;;;;4982411;28;20969;-50
2022/08/13 06:34:58;;;;;;;446.38;279.27;;;;;;;;;;4988265;28;20217;-50
2022/08/13 06:37:25;;;;;;;413.25;254.60;;;;;;;;;;4992072;28;20217;-49
2022/08/13 06:39:52;;;;;;;386.73;249.55;;;;;;;;;;4983534;28;20756;-50
2022/08/13 06:42:19;;;;;;;434.27;267.20;;;;;;;;;;4990996;28;20178;-49
2022/08/13 06:44:47;;;;;;;417.55;263.48;;;;;;;;;;4994826;28;20181;-50
2022/08/13 06:47:13;;;;;;;413.98;267.25;;;;;;;;;;4980963;28;20368;-50
2022/08/13 06:49:39;;;;;;;394.40;251.50;;;;;;;;;;4991734;28;20300;-50
2022/08/13 06:52:05;;;;;;;470.77;304.45;;;;;;;;;;4983073;28;20705;-50
2022/08/13 06:54:33;;;;;;;465.85;287.27;;;;;;;;;;4978228;28;20205;-50
2022/08/13 06:56:59;;;;;;;422.52;271.55;;;;;;;;;;4980807;28;21292;-50
2022/08/13 06:59:25;;;;;;;492.52;306.08;;;;;;;;;;4970612;28;20212;-51
2022/08/13 07:01:59;;;;;;;448.10;291.05;;;;;;;;;;4967198;28;20276;-51
2022/08/13 07:04:25;;;;;;;410.70;264.98;;;;;;;;;;4983069;28;20230;-50
2022/08/13 07:06:52;;;;;;;420.95;272.63;;;;;;;;;;4983462;28;20217;-51
2022/08/13 07:09:18;;;;;;;429.73;274.98;;;;;;;;;;4982911;28;20331;-50
2022/08/13 07:11:45;;;;;;;421.85;276.45;;;;;;;;;;4979181;28;20173;-50
2022/08/13 07:14:13;;;;;;;500.23;324.98;;;;;;;;;;4974633;28;20969;-50
2022/08/13 07:16:40;;;;;;;414.92;278.02;;;;;;;;;;4973730;28;20313;-50
2022/08/13 07:19:06;;;;;;;492.60;317.40;;;;;;;;;;4969937;28;20235;-50
2022/08/13 07:21:32;;;;;;;509.42;326.92;;;;;;;;;;4969024;28;20185;-50
2022/08/13 07:24:02;;;;;;;480.25;311.23;;;;;;;;;;4973831;28;20233;-51
2022/08/13 07:26:29;;;;;;;409.90;274.05;;;;;;;;;;4983113;28;20217;-51
2022/08/13 07:28:55;;;;;;;411.58;270.13;;;;;;;;;;4981831;28;20955;-50
2022/08/13 07:31:28;;;;;;;399.63;264.15;;;;;;;;;;4984276;28;20493;-51
2022/08/13 07:33:56;;;;;;;443.00;291.05;;;;;;;;;;4979120;28;20281;-50
2022/08/13 07:36:24;;;;;;;440.58;290.00;;;;;;;;;;4978059;28;20554;-50
2022/08/13 07:38:51;;;;;;;416.77;282.05;;;;;;;;;;4977229;28;20642;-50
2022/08/13 07:41:19;;;;;;;424.80;275.05;;;;;;;;;;4984902;28;20662;-50
2022/08/13 07:43:47;;;;;;;421.38;282.85;;;;;;;;;;4986150;28;20221;-50
2022/08/13 07:46:17;;;;;;;431.83;289.55;;;;;;;;;;4978791;28;20217;-51
2022/08/13 07:48:47;;;;;;;439.38;282.60;;;;;;;;;;4981766;28;20542;-50
2022/08/13 07:51:20;;;;;;;446.52;291.85;;;;;;;;;;4992267;28;20752;-50
2022/08/13 07:53:47;;;;;;;387.52;259.40;;;;;;;;;;5009509;28;20231;-51
2022/08/13 07:56:16;;;;;;;423.17;292.02;;;;;;;;;;5001928;28;20204;-51
2022/08/13 07:58:42;;;;;;;466.13;304.40;;;;;;;;;;4998117;28;20284;-50
2022/08/13 08:01:08;;;;;;;424.33;286.02;;;;;;;;;;4996806;28;20299;-50
2022/08/13 08:03:40;;;;;;;410.38;293.13;;;;;;;;;;5003878;28;20219;-51
2022/08/13 08:06:14;;;;;;;457.48;317.83;;;;;;;;;;5006014;28;20629;-48
2022/08/13 08:08:42;;;;;;;406.50;278.20;;;;;;;;;;5013231;28;20212;-48
2022/08/13 08:11:08;;;;;;;408.42;286.40;;;;;;;;;;5010071;28;20201;-48
2022/08/13 08:13:35;;;;;;;441.25;307.63;;;;;;;;;;5011883;28;20298;-48
2022/08/13 08:16:03;;;;;;;397.10;292.70;;;;;;;;;;5006210;28;20684;-48
2022/08/13 08:18:30;;;;;;;414.25;297.02;;;;;;;;;;5010329;28;20211;-48
2022/08/13 08:21:04;;;;;;;396.17;294.08;;;;;;;;;;5011208;28;20187;-48
2022/08/13 08:23:30;;;;;;;400.35;284.30;;;;;;;;;;5009126;28;20230;-48
2022/08/13 08:25:57;;;;;;;398.30;274.60;;;;;;;;;;5011528;28;20212;-48
2022/08/13 08:28:25;;;;;;;415.48;281.73;;;;;;;;;;5006562;28;20259;-48
2022/08/13 08:30:51;;;;;;;378.40;264.23;;;;;;;;;;5012445;28;20212;-48
2022/08/13 08:33:17;;;;;;;411.98;282.23;;;;;;;;;;5007753;28;20266;-48
2022/08/13 08:35:43;;;;;;;426.63;290.50;;;;;;;;;;5009656;28;20228;-48
2022/08/13 08:43:41;;;;;;;477.45;318.63;;;;;;;;;;4992513;28;20238;-49
2022/08/13 08:46:08;;;;;;;468.65;316.55;;;;;;;;;;4991649;28;20244;-50
2022/08/13 08:48:36;;;;;;;437.55;298.48;;;;;;;;;;4990696;28;20368;-50
2022/08/13 08:51:02;;;;;;;481.55;320.35;;;;;;;;;;4976418;28;20737;-50
2022/08/13 08:53:29;;;;;;;459.08;314.48;;;;;;;;;;4994307;28;20608;-50
2022/08/13 08:55:55;;;;;;;403.73;284.75;;;;;;;;;;5004094;28;20215;-50
2022/08/13 08:58:22;;;;;;;417.33;305.20;;;;;;;;;;4997812;28;20217;-50
2022/08/13 09:00:49;;;;;;;380.63;278.17;;;;;;;;;;5007296;28;20580;-50
2022/08/13 09:03:19;;;;;;;572.95;376.48;;;;;;;;;;5000807;28;20219;-50
2022/08/13 09:05:48;;;;;;;421.00;288.15;;;;;;;;;;5010655;28;20212;-50
2022/08/13 09:08:15;;;;;;;392.48;282.05;;;;;;;;;;5013814;28;20217;-50
2022/08/13 09:10:43;;;;;;;439.15;315.48;;;;;;;;;;5005535;28;20220;-50
2022/08/13 09:13:12;;;;;;;406.23;302.65;;;;;;;;;;5007546;28;20221;-50
2022/08/13 09:15:39;;;;;;;453.10;323.63;;;;;;;;;;5011652;28;20299;-50
2022/08/13 09:18:05;;;;;;;426.33;302.13;;;;;;;;;;5011607;28;21463;-50
2022/08/13 09:20:33;;;;;;;466.60;316.58;;;;;;;;;;5001680;28;20301;-50
2022/08/13 09:23:07;;;;;;;424.77;289.30;;;;;;;;;;5005202;28;20220;-50
2022/08/13 09:25:34;;;;;;;431.45;291.60;;;;;;;;;;5006328;28;20213;-50
2022/08/13 09:28:00;;;;;;;397.33;279.17;;;;;;;;;;5008961;28;20216;-50
2022/08/13 09:30:26;;;;;;;441.65;303.77;;;;;;;;;;5006366;28;20234;-50
2022/08/13 09:32:53;;;;;;;423.13;291.33;;;;;;;;;;5009414;28;20209;-50
2022/08/13 09:35:20;;;;;;;435.92;292.55;;;;;;;;;;5007469;28;20220;-50
2022/08/13 09:37:48;;;;;;;402.45;273.67;;;;;;;;;;5012888;28;20279;-50
2022/08/13 09:40:14;;;;;;;423.38;285.98;;;;;;;;;;5012694;28;20221;-50
2022/08/13 09:42:57;;;;;;;427.40;287.50;;;;;;;;;;5002857;28;20235;-50
2022/08/13 09:45:24;;;;;;;413.60;285.23;;;;;;;;;;5007121;28;20238;-50
2022/08/13 09:47:50;;;;;;;458.65;306.38;;;;;;;;;;4996658;28;20251;-50
2022/08/13 09:50:16;;;;;;;400.45;284.58;;;;;;;;;;5005314;28;20244;-51
2022/08/13 09:52:42;;;;;;;446.65;299.38;;;;;;;;;;5006011;28;21283;-51
2022/08/13 09:55:08;;;;;;;399.95;268.88;;;;;;;;;;5009800;28;20208;-51
2022/08/13 09:57:53;;;;;;;459.85;309.63;;;;;;;;;;5004880;28;20199;-51
2022/08/13 10:00:24;;;;;;;410.33;272.05;;;;;;;;;;5007259;28;20712;-52
2022/08/13 10:02:52;;;;;;;445.42;291.73;;;;;;;;;;5006067;28;20239;-51
2022/08/13 10:05:18;;;;;;;419.95;282.55;;;;;;;;;;4993154;28;20240;-51
2022/08/13 10:07:47;;;;;;;395.38;275.63;;;;;;;;;;4989941;28;20786;-51
2022/08/13 10:10:14;;;;;;;464.00;304.13;;;;;;;;;;4981054;28;20323;-51
2022/08/13 10:12:41;;;;;;;417.45;278.58;;;;;;;;;;4982687;28;20315;-51
2022/08/13 10:15:08;;;;;;;443.10;287.20;;;;;;;;;;4971397;28;20182;-51
2022/08/13 10:17:45;;;;;;;462.92;289.23;;;;;;;;;;4981165;28;20291;-51
2022/08/13 10:20:11;;;;;;;413.35;276.15;;;;;;;;;;4981586;28;20243;-51
2022/08/13 10:22:37;;;;;;;439.52;287.40;;;;;;;;;;4978382;28;20222;-51
2022/08/13 10:25:03;;;;;;;430.15;290.52;;;;;;;;;;4987527;28;20235;-50
2022/08/13 10:27:29;;;;;;;440.58;287.65;;;;;;;;;;4989601;28;20256;-51
2022/08/13 10:29:55;;;;;;;440.55;285.98;;;;;;;;;;4988181;28;20367;-53
2022/08/13 10:32:21;;;;;;;424.00;277.17;;;;;;;;;;4988229;28;20311;-53
2022/08/13 10:34:47;;;;;;;424.20;294.30;;;;;;;;;;4987758;28;20312;-53
2022/08/13 10:37:13;;;;;;;412.05;281.33;;;;;;;;;;4990734;28;20556;-54
2022/08/13 10:39:39;;;;;;;442.52;294.92;;;;;;;;;;4985624;28;20225;-54
2022/08/13 10:42:06;;;;;;;415.25;274.75;;;;;;;;;;4988117;28;20212;-53
2022/08/13 10:44:32;;;;;;;425.17;280.27;;;;;;;;;;4979514;28;20241;-55
2022/08/13 10:46:59;;;;;;;470.65;295.70;;;;;;;;;;4973571;28;20229;-54
2022/08/13 10:49:25;;;;;;;409.30;276.33;;;;;;;;;;4973834;28;20354;-55
2022/08/13 10:51:51;;;;;;;445.55;291.45;;;;;;;;;;4977790;28;20649;-54
2022/08/13 10:54:19;;;;;;;432.52;298.55;;;;;;;;;;4975369;28;20221;-54
2022/08/13 10:56:45;;;;;;;472.40;305.45;;;;;;;;;;4974516;28;20270;-54
2022/08/13 10:59:12;;;;;;;441.17;298.85;;;;;;;;;;4975405;28;20322;-54
2022/08/13 11:01:40;;;;;;;511.33;311.25;;;;;;;;;;4975456;28;20223;-53
2022/08/13 11:04:06;;;;;;;519.92;315.92;;;;;;;;;;4970422;28;20229;-53
2022/08/13 11:06:32;;;;;;;475.23;309.83;;;;;;;;;;4981233;28;20185;-53
2022/08/13 11:08:59;;;;;;;491.95;311.63;;;;;;;;;;4979246;28;20284;-52
2022/08/13 11:11:25;;;;;;;411.50;278.38;;;;;;;;;;4976290;28;20210;-52
2022/08/13 11:13:51;;;;;;;425.00;281.20;;;;;;;;;;4976512;28;20217;-53
2022/08/13 11:18:59;;;;;;;488.95;332.60;;;;;;;;;;4971867;28;20734;-54
2022/08/13 11:21:25;;;;;;;427.00;294.05;;;;;;;;;;4979091;28;20588;-53
2022/08/13 11:23:52;;;;;;;443.30;305.02;;;;;;;;;;4973305;28;20277;-53
2022/08/13 11:26:18;;;;;;;456.00;313.80;;;;;;;;;;4972479;28;20217;-53
2022/08/13 11:28:44;;;;;;;450.35;312.45;;;;;;;;;;4978105;28;20777;-53
2022/08/13 11:31:10;;;;;;;437.05;311.05;;;;;;;;;;4980175;28;20233;-53
2022/08/13 11:33:36;;;;;;;499.30;333.00;;;;;;;;;;4972006;28;20362;-53
2022/08/13 11:36:03;;;;;;;426.50;305.10;;;;;;;;;;4982802;28;20202;-53
2022/08/13 11:38:29;;;;;;;470.02;323.35;;;;;;;;;;4978888;28;20224;-53
2022/08/13 11:40:56;;;;;;;449.83;320.00;;;;;;;;;;4980365;28;20216;-53
2022/08/13 11:43:24;;;;;;;411.80;301.75;;;;;;;;;;4979178;28;20285;-53
2022/08/13 11:45:50;;;;;;;498.23;347.00;;;;;;;;;;4982577;28;20522;-53
2022/08/13 11:48:16;;;;;;;497.80;345.23;;;;;;;;;;4971799;28;20196;-53
2022/08/13 11:50:42;;;;;;;409.20;304.15;;;;;;;;;;4983315;28;20214;-53
2022/08/13 11:53:08;;;;;;;426.85;303.98;;;;;;;;;;4981108;28;20312;-53
2022/08/13 11:55:34;;;;;;;485.45;340.40;;;;;;;;;;4982013;28;20221;-53
2022/08/13 11:58:01;;;;;;;424.17;309.48;;;;;;;;;;4982070;28;20320;-54
2022/08/13 12:00:27;;;;;;;443.08;330.83;;;;;;;;;;4981775;28;20193;-53
2022/08/13 12:02:53;;;;;;;441.52;322.85;;;;;;;;;;4983660;28;20224;-53
2022/08/13 12:05:19;;;;;;;439.50;324.75;;;;;;;;;;4985915;28;20399;-53
2022/08/13 12:07:45;;;;;;;449.30;325.80;;;;;;;;;;4979359;28;20580;-53
2022/08/13 12:10:11;;;;;;;416.77;299.45;;;;;;;;;;4983812;28;20221;-53
2022/08/13 12:12:37;;;;;;;426.13;325.42;;;;;;;;;;4981629;28;20221;-50
2022/08/13 12:15:03;;;;;;;408.73;311.58;;;;;;;;;;4984459;28;20255;-50
2022/08/13 12:17:29;;;;;;;442.98;331.80;;;;;;;;;;4982189;28;20217;-50
2022/08/13 12:19:55;;;;;;;415.55;303.50;;;;;;;;;;4987077;28;20284;-49
2022/08/13 12:22:21;;;;;;;421.45;313.25;;;;;;;;;;4989407;28;20301;-48
2022/08/13 12:24:47;;;;;;;428.10;324.10;;;;;;;;;;4989049;28;20324;-50
2022/08/13 12:27:13;;;;;;;393.02;315.73;;;;;;;;;;4988728;28;20182;-50
2022/08/13 12:29:39;;;;;;;438.40;345.73;;;;;;;;;;4978999;28;20274;-46
2022/08/13 12:32:05;;;;;;;472.70;349.23;;;;;;;;;;4982568;28;20229;-47
2022/08/13 12:34:32;;;;;;;448.05;340.52;;;;;;;;;;4982051;28;20230;-47
2022/08/13 12:36:58;;;;;;;472.80;353.05;;;;;;;;;;4979777;28;20322;-47
2022/08/13 12:39:24;;;;;;;461.95;345.58;;;;;;;;;;4983259;28;20310;-45
2022/08/13 12:41:49;;;;;;;472.75;365.42;;;;;;;;;;4977447;28;21215;-47
2022/08/13 12:44:15;;;;;;;433.88;337.02;;;;;;;;;;4984161;28;20689;-47
2022/08/13 12:46:41;;;;;;;481.35;356.15;;;;;;;;;;4987147;28;20216;-46
2022/08/13 12:49:07;;;;;;;416.85;322.08;;;;;;;;;;4981482;28;20216;-48
2022/08/13 12:51:33;;;;;;;455.80;354.80;;;;;;;;;;4978059;28;20554;-47
2022/08/13 12:54:00;;;;;;;427.70;327.60;;;;;;;;;;4981262;28;20220;-47
2022/08/13 12:56:25;;;;;;;433.45;337.35;;;;;;;;;;4982230;28;20276;-46
2022/08/13 12:58:51;;;;;;;424.00;336.73;;;;;;;;;;4987360;28;20985;-47
2022/08/13 13:01:17;;;;;;;457.70;338.38;;;;;;;;;;4983609;28;20274;-47
2022/08/13 13:03:43;;;;;;;444.65;341.95;;;;;;;;;;4976525;28;20364;-47
2022/08/13 13:06:09;;;;;;;404.50;317.70;;;;;;;;;;4978164;28;20185;-46
2022/08/13 13:08:36;;;;;;;464.17;341.35;;;;;;;;;;4985869;28;20586;-46
2022/08/13 13:11:04;;;;;;;455.52;346.75;;;;;;;;;;4979575;28;20311;-47
2022/08/13 13:13:35;;;;;;;430.05;336.80;;;;;;;;;;4981506;28;20677;-47
2022/08/13 13:16:01;;;;;;;476.95;364.75;;;;;;;;;;4983428;28;20217;-46
2022/08/13 13:18:28;;;;;;;450.73;350.58;;;;;;;;;;4978770;28;20177;-46
2022/08/13 13:20:55;;;;;;;461.95;371.30;;;;;;;;;;4977118;28;20196;-47
2022/08/13 13:23:22;;;;;;;457.52;382.30;;;;;;;;;;4971315;28;20217;-48
2022/08/13 13:25:48;;;;;;;436.00;366.27;;;;;;;;;;4973158;28;20590;-46
2022/08/13 13:28:16;;;;;;;496.75;421.65;;;;;;;;;;4975801;28;20275;-46
2022/08/13 13:30:43;;;;;;;495.90;406.50;;;;;;;;;;4977684;28;20308;-46
2022/08/13 13:33:09;;;;;;;477.48;397.25;;;;;;;;;;4978848;28;20201;-46
2022/08/13 13:35:37;;;;;;;463.20;395.60;;;;;;;;;;4988202;28;20240;-48
2022/08/13 13:38:03;;;;;;;441.55;390.63;;;;;;;;;;4976283;28;20232;-47
2022/08/13 13:40:29;;;;;;;467.17;398.85;;;;;;;;;;4985162;28;20221;-48
2022/08/13 13:42:57;;;;;;;479.38;406.15;;;;;;;;;;4976717;28;20220;-48
2022/08/13 13:45:23;;;;;;;441.13;391.70;;;;;;;;;;4980033;28;20255;-50
2022/08/13 13:47:49;;;;;;;437.95;384.48;;;;;;;;;;4986919;28;20210;-50
2022/08/13 13:50:15;;;;;;;411.00;365.80;;;;;;;;;;4993096;28;20242;-47
2022/08/13 13:52:41;;;;;;;421.65;373.95;;;;;;;;;;4990795;28;20415;-49
2022/08/13 13:55:07;;;;;;;474.77;405.73;;;;;;;;;;4991891;28;20280;-49
2022/08/13 13:57:33;;;;;;;429.70;371.77;;;;;;;;;;4994996;28;20190;-50
2022/08/13 13:59:59;;;;;;;420.40;368.75;;;;;;;;;;5001775;28;20192;-49
2022/08/13 14:02:25;;;;;;;431.45;379.75;;;;;;;;;;4997680;28;20370;-49
2022/08/13 14:04:51;;;;;;;418.52;373.77;;;;;;;;;;4995022;28;20275;-49
2022/08/13 14:07:18;;;;;;;439.52;391.73;;;;;;;;;;5000709;28;20227;-49
2022/08/13 14:09:45;;;;;;;444.80;396.20;;;;;;;;;;4993589;28;20220;-48
2022/08/13 14:12:11;;;;;;;443.63;396.52;;;;;;;;;;5005300;28;20251;-49
2022/08/13 14:14:37;;;;;;;440.55;393.83;;;;;;;;;;4995312;28;20221;-50